sensor_id;sensor_type;location;lat;lon;timestamp;P1;P2;P0
74880;PMS5003;63427;49.654;6.596;2023-03-01T00:00:33;24;24;
74880;PMS5003;63427;49.654;6.596;2023-03-01T00:02:59;31;27;
74880;PMS5003;63427;49.654;6.596;2023-03-01T00:05:24;29;28;
74880;PMS5003;63427;49.654;6.596;2023-03-01T00:07:52;23;23;
74880;PMS5003;63427;49.654;6.596;2023-03-01T00:10:15;24;23;
74880;PMS5003;63427;49.654;6.596;2023-03-01T00:12:40;29;27;
74880;PMS5003;63427;49.654;6.596;2023-03-01T00:15:07;23;22;
74880;PMS5003;63427;49.654;6.596;2023-03-01T00:17:31;24;23;
74880;PMS5003;63427;49.654;6.596;2023-03-01T00:19:57;27;25;
74880;PMS5003;63427;49.654;6.596;2023-03-01T00:22:22;22;22;
74880;PMS5003;63427;49.654;6.596;2023-03-01T00:24:48;23;20;
74880;PMS5003;63427;49.654;6.596;2023-03-01T00:27:13;20;18;
74880;PMS5003;63427;49.654;6.596;2023-03-01T00:29:38;22;22;
74880;PMS5003;63427;49.654;6.596;2023-03-01T00:32:04;26;24;
74880;PMS5003;63427;49.654;6.596;2023-03-01T00:34:29;32;30;
74880;PMS5003;63427;49.654;6.596;2023-03-01T00:36:55;32;31;
74880;PMS5003;63427;49.654;6.596;2023-03-01T00:39:20;26;26;
74880;PMS5003;63427;49.654;6.596;2023-03-01T00:41:45;26;24;
74880;PMS5003;63427;49.654;6.596;2023-03-01T00:44:10;24;24;
74880;PMS5003;63427;49.654;6.596;2023-03-01T00:46:35;25;25;
74880;PMS5003;63427;49.654;6.596;2023-03-01T00:49:00;28;25;
74880;PMS5003;63427;49.654;6.596;2023-03-01T00:51:26;24;23;
74880;PMS5003;63427;49.654;6.596;2023-03-01T00:53:51;28;27;
74880;PMS5003;63427;49.654;6.596;2023-03-01T00:56:16;23;22;
74880;PMS5003;63427;49.654;6.596;2023-03-01T00:58:41;24;22;
74880;PMS5003;63427;49.654;6.596;2023-03-01T01:01:07;27;26;
74880;PMS5003;63427;49.654;6.596;2023-03-01T01:03:31;27;24;
74880;PMS5003;63427;49.654;6.596;2023-03-01T01:05:57;24;23;
74880;PMS5003;63427;49.654;6.596;2023-03-01T01:08:22;20;18;
74880;PMS5003;63427;49.654;6.596;2023-03-01T01:10:47;19;19;
74880;PMS5003;63427;49.654;6.596;2023-03-01T01:13:14;19;19;
74880;PMS5003;63427;49.654;6.596;2023-03-01T01:15:38;26;24;
74880;PMS5003;63427;49.654;6.596;2023-03-01T01:18:03;27;26;
74880;PMS5003;63427;49.654;6.596;2023-03-01T01:20:28;18;17;
74880;PMS5003;63427;49.654;6.596;2023-03-01T01:22:53;22;19;
74880;PMS5003;63427;49.654;6.596;2023-03-01T01:25:18;22;22;
74880;PMS5003;63427;49.654;6.596;2023-03-01T01:27:43;21;19;
74880;PMS5003;63427;49.654;6.596;2023-03-01T01:30:09;23;22;
74880;PMS5003;63427;49.654;6.596;2023-03-01T01:32:34;27;23;
74880;PMS5003;63427;49.654;6.596;2023-03-01T01:35:00;23;22;
74880;PMS5003;63427;49.654;6.596;2023-03-01T01:37:25;25;25;
74880;PMS5003;63427;49.654;6.596;2023-03-01T01:39:51;22;21;
74880;PMS5003;63427;49.654;6.596;2023-03-01T01:42:16;22;22;
74880;PMS5003;63427;49.654;6.596;2023-03-01T01:44:42;25;22;
74880;PMS5003;63427;49.654;6.596;2023-03-01T01:47:07;28;27;
74880;PMS5003;63427;49.654;6.596;2023-03-01T01:49:33;24;23;
74880;PMS5003;63427;49.654;6.596;2023-03-01T01:51:59;27;25;
74880;PMS5003;63427;49.654;6.596;2023-03-01T01:54:23;19;18;
74880;PMS5003;63427;49.654;6.596;2023-03-01T01:56:50;29;26;
74880;PMS5003;63427;49.654;6.596;2023-03-01T01:59:14;29;26;
74880;PMS5003;63427;49.654;6.596;2023-03-01T02:01:40;22;22;
74880;PMS5003;63427;49.654;6.596;2023-03-01T02:04:05;27;26;
74880;PMS5003;63427;49.654;6.596;2023-03-01T02:06:31;27;26;
74880;PMS5003;63427;49.654;6.596;2023-03-01T02:08:57;33;29;
74880;PMS5003;63427;49.654;6.596;2023-03-01T02:11:21;27;26;
74880;PMS5003;63427;49.654;6.596;2023-03-01T02:13:46;30;30;
74880;PMS5003;63427;49.654;6.596;2023-03-01T02:16:13;23;23;
74880;PMS5003;63427;49.654;6.596;2023-03-01T02:18:37;34;30;
74880;PMS5003;63427;49.654;6.596;2023-03-01T02:21:07;31;31;
74880;PMS5003;63427;49.654;6.596;2023-03-01T02:23:28;31;30;
74880;PMS5003;63427;49.654;6.596;2023-03-01T02:25:54;21;19;
74880;PMS5003;63427;49.654;6.596;2023-03-01T02:28:21;26;23;
74880;PMS5003;63427;49.654;6.596;2023-03-01T02:30:44;31;29;
74880;PMS5003;63427;49.654;6.596;2023-03-01T02:33:09;31;29;
74880;PMS5003;63427;49.654;6.596;2023-03-01T02:35:35;31;29;
74880;PMS5003;63427;49.654;6.596;2023-03-01T02:38:01;31;31;
74880;PMS5003;63427;49.654;6.596;2023-03-01T02:40:25;30;27;
74880;PMS5003;63427;49.654;6.596;2023-03-01T02:42:51;25;22;
74880;PMS5003;63427;49.654;6.596;2023-03-01T02:45:16;23;22;
74880;PMS5003;63427;49.654;6.596;2023-03-01T02:47:41;30;26;
74880;PMS5003;63427;49.654;6.596;2023-03-01T02:50:11;26;23;
74880;PMS5003;63427;49.654;6.596;2023-03-01T02:52:36;35;34;
74880;PMS5003;63427;49.654;6.596;2023-03-01T02:54:58;25;23;
74880;PMS5003;63427;49.654;6.596;2023-03-01T02:57:23;25;25;
74880;PMS5003;63427;49.654;6.596;2023-03-01T02:59:48;27;27;
74880;PMS5003;63427;49.654;6.596;2023-03-01T03:02:18;22;21;
74880;PMS5003;63427;49.654;6.596;2023-03-01T03:04:39;27;26;
74880;PMS5003;63427;49.654;6.596;2023-03-01T03:07:04;30;27;
74880;PMS5003;63427;49.654;6.596;2023-03-01T03:09:30;26;26;
74880;PMS5003;63427;49.654;6.596;2023-03-01T03:11:55;29;27;
74880;PMS5003;63427;49.654;6.596;2023-03-01T03:14:21;29;27;
74880;PMS5003;63427;49.654;6.596;2023-03-01T03:16:47;27;25;
74880;PMS5003;63427;49.654;6.596;2023-03-01T03:19:12;33;30;
74880;PMS5003;63427;49.654;6.596;2023-03-01T03:21:37;35;34;
74880;PMS5003;63427;49.654;6.596;2023-03-01T03:24:03;26;25;
74880;PMS5003;63427;49.654;6.596;2023-03-01T03:26:28;26;23;
74880;PMS5003;63427;49.654;6.596;2023-03-01T03:28:53;29;29;
74880;PMS5003;63427;49.654;6.596;2023-03-01T03:31:18;23;21;
74880;PMS5003;63427;49.654;6.596;2023-03-01T03:33:44;27;26;
74880;PMS5003;63427;49.654;6.596;2023-03-01T03:36:09;38;34;
74880;PMS5003;63427;49.654;6.596;2023-03-01T03:38:34;30;30;
74880;PMS5003;63427;49.654;6.596;2023-03-01T03:41:00;29;26;
74880;PMS5003;63427;49.654;6.596;2023-03-01T03:43:25;29;27;
74880;PMS5003;63427;49.654;6.596;2023-03-01T03:45:51;34;29;
74880;PMS5003;63427;49.654;6.596;2023-03-01T03:48:16;31;30;
74880;PMS5003;63427;49.654;6.596;2023-03-01T03:50:46;39;37;
74880;PMS5003;63427;49.654;6.596;2023-03-01T03:53:08;27;26;
74880;PMS5003;63427;49.654;6.596;2023-03-01T03:55:32;35;33;
74880;PMS5003;63427;49.654;6.596;2023-03-01T03:57:58;30;29;
74880;PMS5003;63427;49.654;6.596;2023-03-01T04:00:23;33;30;
74880;PMS5003;63427;49.654;6.596;2023-03-01T04:02:49;34;33;
74880;PMS5003;63427;49.654;6.596;2023-03-01T04:05:15;35;33;
74880;PMS5003;63427;49.654;6.596;2023-03-01T04:07:40;33;31;
74880;PMS5003;63427;49.654;6.596;2023-03-01T04:10:05;31;31;
74880;PMS5003;63427;49.654;6.596;2023-03-01T04:12:30;38;35;
74880;PMS5003;63427;49.654;6.596;2023-03-01T04:14:55;30;27;
74880;PMS5003;63427;49.654;6.596;2023-03-01T04:17:20;35;33;
74880;PMS5003;63427;49.654;6.596;2023-03-01T04:19:45;35;33;
74880;PMS5003;63427;49.654;6.596;2023-03-01T04:22:11;38;37;
74880;PMS5003;63427;49.654;6.596;2023-03-01T04:24:36;35;35;
74880;PMS5003;63427;49.654;6.596;2023-03-01T04:27:01;41;41;
74880;PMS5003;63427;49.654;6.596;2023-03-01T04:29:27;41;39;
74880;PMS5003;63427;49.654;6.596;2023-03-01T04:31:52;46;43;
74880;PMS5003;63427;49.654;6.596;2023-03-01T04:34:18;46;44;
74880;PMS5003;63427;49.654;6.596;2023-03-01T04:36:43;46;40;
74880;PMS5003;63427;49.654;6.596;2023-03-01T04:39:08;46;40;
74880;PMS5003;63427;49.654;6.596;2023-03-01T04:41:33;38;38;
74880;PMS5003;63427;49.654;6.596;2023-03-01T04:43:59;48;44;
74880;PMS5003;63427;49.654;6.596;2023-03-01T04:46:24;45;43;
74880;PMS5003;63427;49.654;6.596;2023-03-01T04:48:50;45;36;
74880;PMS5003;63427;49.654;6.596;2023-03-01T04:51:16;40;39;
74880;PMS5003;63427;49.654;6.596;2023-03-01T04:53:41;38;35;
74880;PMS5003;63427;49.654;6.596;2023-03-01T04:56:06;45;43;
74880;PMS5003;63427;49.654;6.596;2023-03-01T04:58:31;36;35;
74880;PMS5003;63427;49.654;6.596;2023-03-01T05:00:57;44;40;
74880;PMS5003;63427;49.654;6.596;2023-03-01T05:03:22;45;44;
74880;PMS5003;63427;49.654;6.596;2023-03-01T05:05:49;40;39;
74880;PMS5003;63427;49.654;6.596;2023-03-01T05:08:13;42;39;
74880;PMS5003;63427;49.654;6.596;2023-03-01T05:10:38;44;42;
74880;PMS5003;63427;49.654;6.596;2023-03-01T05:13:04;48;45;
74880;PMS5003;63427;49.654;6.596;2023-03-01T05:15:31;46;38;
74880;PMS5003;63427;49.654;6.596;2023-03-01T05:17:56;42;40;
74880;PMS5003;63427;49.654;6.596;2023-03-01T05:20:20;42;40;
74880;PMS5003;63427;49.654;6.596;2023-03-01T05:22:46;42;38;
74880;PMS5003;63427;49.654;6.596;2023-03-01T05:25:11;42;38;
74880;PMS5003;63427;49.654;6.596;2023-03-01T05:27:36;48;47;
74880;PMS5003;63427;49.654;6.596;2023-03-01T05:30:02;46;45;
74880;PMS5003;63427;49.654;6.596;2023-03-01T05:32:27;45;41;
74880;PMS5003;63427;49.654;6.596;2023-03-01T05:34:53;44;42;
74880;PMS5003;63427;49.654;6.596;2023-03-01T05:37:18;41;40;
74880;PMS5003;63427;49.654;6.596;2023-03-01T05:39:44;47;45;
74880;PMS5003;63427;49.654;6.596;2023-03-01T05:42:10;38;37;
74880;PMS5003;63427;49.654;6.596;2023-03-01T05:44:35;39;36;
74880;PMS5003;63427;49.654;6.596;2023-03-01T05:47:00;43;43;
74880;PMS5003;63427;49.654;6.596;2023-03-01T05:49:25;42;40;
74880;PMS5003;63427;49.654;6.596;2023-03-01T05:51:50;46;44;
74880;PMS5003;63427;49.654;6.596;2023-03-01T05:54:16;52;51;
74880;PMS5003;63427;49.654;6.596;2023-03-01T05:56:41;52;49;
74880;PMS5003;63427;49.654;6.596;2023-03-01T05:59:06;65;62;
74880;PMS5003;63427;49.654;6.596;2023-03-01T06:01:32;53;51;
74880;PMS5003;63427;49.654;6.596;2023-03-01T06:03:57;51;47;
74880;PMS5003;63427;49.654;6.596;2023-03-01T06:06:23;44;42;
74880;PMS5003;63427;49.654;6.596;2023-03-01T06:08:49;49;44;
74880;PMS5003;63427;49.654;6.596;2023-03-01T06:11:14;54;47;
74880;PMS5003;63427;49.654;6.596;2023-03-01T06:13:40;49;44;
74880;PMS5003;63427;49.654;6.596;2023-03-01T06:16:05;48;45;
74880;PMS5003;63427;49.654;6.596;2023-03-01T06:18:30;78;73;
74880;PMS5003;63427;49.654;6.596;2023-03-01T06:20:55;54;50;
74880;PMS5003;63427;49.654;6.596;2023-03-01T06:23:20;52;51;
74880;PMS5003;63427;49.654;6.596;2023-03-01T06:25:47;59;53;
74880;PMS5003;63427;49.654;6.596;2023-03-01T06:28:11;58;57;
74880;PMS5003;63427;49.654;6.596;2023-03-01T06:30:37;49;48;
74880;PMS5003;63427;49.654;6.596;2023-03-01T06:33:02;46;44;
74880;PMS5003;63427;49.654;6.596;2023-03-01T06:35:29;50;46;
74880;PMS5003;63427;49.654;6.596;2023-03-01T06:37:54;43;40;
74880;PMS5003;63427;49.654;6.596;2023-03-01T06:40:19;42;41;
74880;PMS5003;63427;49.654;6.596;2023-03-01T06:42:48;53;49;
74880;PMS5003;63427;49.654;6.596;2023-03-01T06:45:10;45;43;
74880;PMS5003;63427;49.654;6.596;2023-03-01T06:47:35;58;55;
74880;PMS5003;63427;49.654;6.596;2023-03-01T06:50:00;50;46;
74880;PMS5003;63427;49.654;6.596;2023-03-01T06:52:26;49;45;
74880;PMS5003;63427;49.654;6.596;2023-03-01T06:54:51;50;46;
74880;PMS5003;63427;49.654;6.596;2023-03-01T06:57:16;53;53;
74880;PMS5003;63427;49.654;6.596;2023-03-01T06:59:42;53;49;
74880;PMS5003;63427;49.654;6.596;2023-03-01T07:02:09;58;53;
74880;PMS5003;63427;49.654;6.596;2023-03-01T07:04:32;44;43;
74880;PMS5003;63427;49.654;6.596;2023-03-01T07:06:57;50;45;
74880;PMS5003;63427;49.654;6.596;2023-03-01T07:09:22;56;53;
74880;PMS5003;63427;49.654;6.596;2023-03-01T07:11:48;54;50;
74880;PMS5003;63427;49.654;6.596;2023-03-01T07:14:13;57;48;
74880;PMS5003;63427;49.654;6.596;2023-03-01T07:16:39;55;51;
74880;PMS5003;63427;49.654;6.596;2023-03-01T07:19:04;55;52;
74880;PMS5003;63427;49.654;6.596;2023-03-01T07:21:29;47;46;
74880;PMS5003;63427;49.654;6.596;2023-03-01T07:23:55;53;52;
74880;PMS5003;63427;49.654;6.596;2023-03-01T07:26:20;54;52;
74880;PMS5003;63427;49.654;6.596;2023-03-01T07:28:46;52;51;
74880;PMS5003;63427;49.654;6.596;2023-03-01T07:31:11;59;53;
74880;PMS5003;63427;49.654;6.596;2023-03-01T07:33:37;53;49;
74880;PMS5003;63427;49.654;6.596;2023-03-01T07:36:02;48;48;
74880;PMS5003;63427;49.654;6.596;2023-03-01T07:38:28;58;52;
74880;PMS5003;63427;49.654;6.596;2023-03-01T07:40:54;55;53;
74880;PMS5003;63427;49.654;6.596;2023-03-01T07:43:18;55;51;
74880;PMS5003;63427;49.654;6.596;2023-03-01T07:45:44;55;52;
74880;PMS5003;63427;49.654;6.596;2023-03-01T07:48:10;58;55;
74880;PMS5003;63427;49.654;6.596;2023-03-01T07:50:35;58;50;
74880;PMS5003;63427;49.654;6.596;2023-03-01T07:53:00;55;50;
74880;PMS5003;63427;49.654;6.596;2023-03-01T07:55:25;43;39;
74880;PMS5003;63427;49.654;6.596;2023-03-01T07:57:51;51;51;
74880;PMS5003;63427;49.654;6.596;2023-03-01T08:00:17;51;49;
74880;PMS5003;63427;49.654;6.596;2023-03-01T08:02:42;51;49;
74880;PMS5003;63427;49.654;6.596;2023-03-01T08:05:08;59;53;
74880;PMS5003;63427;49.654;6.596;2023-03-01T08:07:33;54;52;
74880;PMS5003;63427;49.654;6.596;2023-03-01T08:09:59;58;52;
74880;PMS5003;63427;49.654;6.596;2023-03-01T08:12:24;53;52;
74880;PMS5003;63427;49.654;6.596;2023-03-01T08:14:49;49;46;
74880;PMS5003;63427;49.654;6.596;2023-03-01T08:17:15;49;48;
74880;PMS5003;63427;49.654;6.596;2023-03-01T08:19:40;54;50;
74880;PMS5003;63427;49.654;6.596;2023-03-01T08:22:06;50;49;
74880;PMS5003;63427;49.654;6.596;2023-03-01T08:24:31;61;59;
74880;PMS5003;63427;49.654;6.596;2023-03-01T08:26:56;62;59;
74880;PMS5003;63427;49.654;6.596;2023-03-01T08:29:22;56;54;
74880;PMS5003;63427;49.654;6.596;2023-03-01T08:31:48;51;46;
74880;PMS5003;63427;49.654;6.596;2023-03-01T08:34:14;46;45;
74880;PMS5003;63427;49.654;6.596;2023-03-01T08:36:40;50;48;
74880;PMS5003;63427;49.654;6.596;2023-03-01T08:39:05;58;53;
74880;PMS5003;63427;49.654;6.596;2023-03-01T08:41:30;57;53;
74880;PMS5003;63427;49.654;6.596;2023-03-01T08:43:55;58;56;
74880;PMS5003;63427;49.654;6.596;2023-03-01T08:46:20;57;54;
74880;PMS5003;63427;49.654;6.596;2023-03-01T08:48:46;48;47;
74880;PMS5003;63427;49.654;6.596;2023-03-01T08:51:12;53;50;
74880;PMS5003;63427;49.654;6.596;2023-03-01T08:53:36;54;49;
74880;PMS5003;63427;49.654;6.596;2023-03-01T08:56:02;58;55;
74880;PMS5003;63427;49.654;6.596;2023-03-01T08:58:26;59;55;
74880;PMS5003;63427;49.654;6.596;2023-03-01T09:00:52;53;50;
74880;PMS5003;63427;49.654;6.596;2023-03-01T09:03:18;52;49;
74880;PMS5003;63427;49.654;6.596;2023-03-01T09:05:43;54;53;
74880;PMS5003;63427;49.654;6.596;2023-03-01T09:08:09;46;45;
74880;PMS5003;63427;49.654;6.596;2023-03-01T09:10:37;50;48;
74880;PMS5003;63427;49.654;6.596;2023-03-01T09:12:59;50;48;
74880;PMS5003;63427;49.654;6.596;2023-03-01T09:15:25;52;51;
74880;PMS5003;63427;49.654;6.596;2023-03-01T09:17:51;49;48;
74880;PMS5003;63427;49.654;6.596;2023-03-01T09:20:16;43;40;
74880;PMS5003;63427;49.654;6.596;2023-03-01T09:22:41;50;48;
74880;PMS5003;63427;49.654;6.596;2023-03-01T09:25:07;42;41;
74880;PMS5003;63427;49.654;6.596;2023-03-01T09:27:33;47;45;
74880;PMS5003;63427;49.654;6.596;2023-03-01T09:29:58;46;43;
74880;PMS5003;63427;49.654;6.596;2023-03-01T09:32:24;45;43;
74880;PMS5003;63427;49.654;6.596;2023-03-01T09:34:49;42;41;
74880;PMS5003;63427;49.654;6.596;2023-03-01T09:37:15;48;44;
74880;PMS5003;63427;49.654;6.596;2023-03-01T09:39:41;46;44;
74880;PMS5003;63427;49.654;6.596;2023-03-01T09:42:10;43;42;
74880;PMS5003;63427;49.654;6.596;2023-03-01T09:44:34;47;45;
74880;PMS5003;63427;49.654;6.596;2023-03-01T09:46:58;47;45;
74880;PMS5003;63427;49.654;6.596;2023-03-01T09:49:23;40;40;
74880;PMS5003;63427;49.654;6.596;2023-03-01T09:51:53;47;45;
74880;PMS5003;63427;49.654;6.596;2023-03-01T09:54:14;52;48;
74880;PMS5003;63427;49.654;6.596;2023-03-01T09:56:39;46;44;
74880;PMS5003;63427;49.654;6.596;2023-03-01T09:59:07;46;45;
74880;PMS5003;63427;49.654;6.596;2023-03-01T10:01:31;40;38;
74880;PMS5003;63427;49.654;6.596;2023-03-01T10:04:00;43;43;
74880;PMS5003;63427;49.654;6.596;2023-03-01T10:06:22;43;42;
74880;PMS5003;63427;49.654;6.596;2023-03-01T10:08:48;43;43;
74880;PMS5003;63427;49.654;6.596;2023-03-01T10:11:17;46;45;
74880;PMS5003;63427;49.654;6.596;2023-03-01T10:13:42;41;40;
74880;PMS5003;63427;49.654;6.596;2023-03-01T10:16:06;45;43;
74880;PMS5003;63427;49.654;6.596;2023-03-01T10:18:30;43;43;
74880;PMS5003;63427;49.654;6.596;2023-03-01T10:20:56;40;39;
74880;PMS5003;63427;49.654;6.596;2023-03-01T10:23:22;45;43;
74880;PMS5003;63427;49.654;6.596;2023-03-01T10:25:48;42;41;
74880;PMS5003;63427;49.654;6.596;2023-03-01T10:28:15;40;39;
74880;PMS5003;63427;49.654;6.596;2023-03-01T10:30:38;40;40;
74880;PMS5003;63427;49.654;6.596;2023-03-01T10:33:03;44;44;
74880;PMS5003;63427;49.654;6.596;2023-03-01T10:35:29;37;37;
74880;PMS5003;63427;49.654;6.596;2023-03-01T10:37:57;41;41;
74880;PMS5003;63427;49.654;6.596;2023-03-01T10:40:19;46;44;
74880;PMS5003;63427;49.654;6.596;2023-03-01T10:42:46;40;36;
74880;PMS5003;63427;49.654;6.596;2023-03-01T10:45:15;45;45;
74880;PMS5003;63427;49.654;6.596;2023-03-01T10:47:35;45;44;
74880;PMS5003;63427;49.654;6.596;2023-03-01T10:50:02;40;37;
74880;PMS5003;63427;49.654;6.596;2023-03-01T10:52:27;39;38;
74880;PMS5003;63427;49.654;6.596;2023-03-01T10:54:52;47;43;
74880;PMS5003;63427;49.654;6.596;2023-03-01T10:59:41;62;60;
74880;PMS5003;63427;49.654;6.596;2023-03-01T11:02:15;40;39;
74880;PMS5003;63427;49.654;6.596;2023-03-01T11:04:32;60;58;
74880;PMS5003;63427;49.654;6.596;2023-03-01T11:06:58;43;43;
74880;PMS5003;63427;49.654;6.596;2023-03-01T11:09:23;46;46;
74880;PMS5003;63427;49.654;6.596;2023-03-01T11:11:51;47;45;
74880;PMS5003;63427;49.654;6.596;2023-03-01T11:14:15;39;39;
74880;PMS5003;63427;49.654;6.596;2023-03-01T11:16:40;42;40;
74880;PMS5003;63427;49.654;6.596;2023-03-01T11:19:16;44;42;
74880;PMS5003;63427;49.654;6.596;2023-03-01T11:21:31;48;47;
74880;PMS5003;63427;49.654;6.596;2023-03-01T11:23:56;43;42;
74880;PMS5003;63427;49.654;6.596;2023-03-01T11:26:22;43;42;
74880;PMS5003;63427;49.654;6.596;2023-03-01T11:28:48;38;37;
74880;PMS5003;63427;49.654;6.596;2023-03-01T11:31:12;39;37;
74880;PMS5003;63427;49.654;6.596;2023-03-01T11:33:39;45;43;
74880;PMS5003;63427;49.654;6.596;2023-03-01T11:36:05;47;44;
74880;PMS5003;63427;49.654;6.596;2023-03-01T11:38:28;38;38;
74880;PMS5003;63427;49.654;6.596;2023-03-01T11:40:54;46;45;
74880;PMS5003;63427;49.654;6.596;2023-03-01T11:43:22;40;39;
74880;PMS5003;63427;49.654;6.596;2023-03-01T11:45:51;42;42;
74880;PMS5003;63427;49.654;6.596;2023-03-01T11:48:17;41;40;
74880;PMS5003;63427;49.654;6.596;2023-03-01T11:50:37;45;43;
74880;PMS5003;63427;49.654;6.596;2023-03-01T11:53:07;44;43;
74880;PMS5003;63427;49.654;6.596;2023-03-01T11:55:30;42;40;
74880;PMS5003;63427;49.654;6.596;2023-03-01T11:57:57;46;45;
74880;PMS5003;63427;49.654;6.596;2023-03-01T12:00:21;45;43;
74880;PMS5003;63427;49.654;6.596;2023-03-01T12:02:48;45;43;
74880;PMS5003;63427;49.654;6.596;2023-03-01T12:05:17;41;40;
74880;PMS5003;63427;49.654;6.596;2023-03-01T12:07:36;46;46;
74880;PMS5003;63427;49.654;6.596;2023-03-01T12:10:04;42;41;
74880;PMS5003;63427;49.654;6.596;2023-03-01T12:12:30;42;41;
74880;PMS5003;63427;49.654;6.596;2023-03-01T12:14:52;42;39;
74880;PMS5003;63427;49.654;6.596;2023-03-01T12:17:19;42;40;
74880;PMS5003;63427;49.654;6.596;2023-03-01T12:19:51;47;47;
74880;PMS5003;63427;49.654;6.596;2023-03-01T12:22:09;45;43;
74880;PMS5003;63427;49.654;6.596;2023-03-01T12:24:36;42;41;
74880;PMS5003;63427;49.654;6.596;2023-03-01T12:27:02;46;46;
74880;PMS5003;63427;49.654;6.596;2023-03-01T12:29:24;44;43;
74880;PMS5003;63427;49.654;6.596;2023-03-01T12:31:53;54;50;
74880;PMS5003;63427;49.654;6.596;2023-03-01T12:34:19;42;41;
74880;PMS5003;63427;49.654;6.596;2023-03-01T12:36:43;50;48;
74880;PMS5003;63427;49.654;6.596;2023-03-01T12:39:09;49;46;
74880;PMS5003;63427;49.654;6.596;2023-03-01T12:41:34;52;51;
74880;PMS5003;63427;49.654;6.596;2023-03-01T12:43:58;49;47;
74880;PMS5003;63427;49.654;6.596;2023-03-01T12:46:25;46;43;
74880;PMS5003;63427;49.654;6.596;2023-03-01T12:48:49;39;39;
74880;PMS5003;63427;49.654;6.596;2023-03-01T12:51:13;38;38;
74880;PMS5003;63427;49.654;6.596;2023-03-01T12:53:39;45;44;
74880;PMS5003;63427;49.654;6.596;2023-03-01T12:56:05;45;43;
74880;PMS5003;63427;49.654;6.596;2023-03-01T12:58:29;50;48;
74880;PMS5003;63427;49.654;6.596;2023-03-01T13:03:22;46;44;
74880;PMS5003;63427;49.654;6.596;2023-03-01T13:05:47;40;38;
74880;PMS5003;63427;49.654;6.596;2023-03-01T13:08:12;39;39;
74880;PMS5003;63427;49.654;6.596;2023-03-01T13:10:39;46;44;
74880;PMS5003;63427;49.654;6.596;2023-03-01T13:13:02;43;42;
74880;PMS5003;63427;49.654;6.596;2023-03-01T13:15:28;49;48;
74880;PMS5003;63427;49.654;6.596;2023-03-01T13:17:52;43;43;
74880;PMS5003;63427;49.654;6.596;2023-03-01T13:20:18;43;42;
74880;PMS5003;63427;49.654;6.596;2023-03-01T13:22:43;51;50;
74880;PMS5003;63427;49.654;6.596;2023-03-01T13:25:12;41;41;
74880;PMS5003;63427;49.654;6.596;2023-03-01T13:27:33;42;40;
74880;PMS5003;63427;49.654;6.596;2023-03-01T13:29:59;43;43;
74880;PMS5003;63427;49.654;6.596;2023-03-01T13:32:25;40;39;
74880;PMS5003;63427;49.654;6.596;2023-03-01T13:34:51;44;43;
74880;PMS5003;63427;49.654;6.596;2023-03-01T13:37:22;44;42;
74880;PMS5003;63427;49.654;6.596;2023-03-01T13:39:40;46;44;
74880;PMS5003;63427;49.654;6.596;2023-03-01T13:44:32;41;41;
74880;PMS5003;63427;49.654;6.596;2023-03-01T13:46:56;40;39;
74880;PMS5003;63427;49.654;6.596;2023-03-01T13:49:22;47;42;
74880;PMS5003;63427;49.654;6.596;2023-03-01T13:51:47;47;45;
74880;PMS5003;63427;49.654;6.596;2023-03-01T13:54:12;45;43;
74880;PMS5003;63427;49.654;6.596;2023-03-01T13:56:38;41;41;
74880;PMS5003;63427;49.654;6.596;2023-03-01T13:59:04;41;39;
74880;PMS5003;63427;49.654;6.596;2023-03-01T14:01:29;37;37;
74880;PMS5003;63427;49.654;6.596;2023-03-01T14:03:54;41;39;
74880;PMS5003;63427;49.654;6.596;2023-03-01T14:06:20;46;43;
74880;PMS5003;63427;49.654;6.596;2023-03-01T14:08:46;39;39;
74880;PMS5003;63427;49.654;6.596;2023-03-01T14:13:39;42;39;
74880;PMS5003;63427;49.654;6.596;2023-03-01T14:16:06;36;36;
74880;PMS5003;63427;49.654;6.596;2023-03-01T14:18:27;46;45;
74880;PMS5003;63427;49.654;6.596;2023-03-01T14:20:52;44;43;
74880;PMS5003;63427;49.654;6.596;2023-03-01T14:23:18;39;38;
74880;PMS5003;63427;49.654;6.596;2023-03-01T14:25:46;39;38;
74880;PMS5003;63427;49.654;6.596;2023-03-01T14:28:14;41;40;
74880;PMS5003;63427;49.654;6.596;2023-03-01T14:30:36;35;34;
74880;PMS5003;63427;49.654;6.596;2023-03-01T14:33:01;44;42;
74880;PMS5003;63427;49.654;6.596;2023-03-01T14:35:26;50;47;
74880;PMS5003;63427;49.654;6.596;2023-03-01T14:37:51;45;43;
74880;PMS5003;63427;49.654;6.596;2023-03-01T14:40:21;41;41;
74880;PMS5003;63427;49.654;6.596;2023-03-01T14:42:42;44;43;
74880;PMS5003;63427;49.654;6.596;2023-03-01T14:45:09;37;36;
74880;PMS5003;63427;49.654;6.596;2023-03-01T14:47:33;45;42;
74880;PMS5003;63427;49.654;6.596;2023-03-01T14:49:59;39;39;
74880;PMS5003;63427;49.654;6.596;2023-03-01T14:52:25;47;46;
74880;PMS5003;63427;49.654;6.596;2023-03-01T14:54:49;41;40;
74880;PMS5003;63427;49.654;6.596;2023-03-01T14:57:15;52;51;
74880;PMS5003;63427;49.654;6.596;2023-03-01T14:59:40;40;39;
74880;PMS5003;63427;49.654;6.596;2023-03-01T15:02:08;41;41;
74880;PMS5003;63427;49.654;6.596;2023-03-01T15:04:31;40;38;
74880;PMS5003;63427;49.654;6.596;2023-03-01T15:06:57;42;40;
74880;PMS5003;63427;49.654;6.596;2023-03-01T15:09:22;41;41;
74880;PMS5003;63427;49.654;6.596;2023-03-01T15:11:48;39;38;
74880;PMS5003;63427;49.654;6.596;2023-03-01T15:16:39;36;36;
74880;PMS5003;63427;49.654;6.596;2023-03-01T15:19:05;38;37;
74880;PMS5003;63427;49.654;6.596;2023-03-01T15:21:31;40;39;
74880;PMS5003;63427;49.654;6.596;2023-03-01T15:23:56;35;35;
74880;PMS5003;63427;49.654;6.596;2023-03-01T15:26:22;41;39;
74880;PMS5003;63427;49.654;6.596;2023-03-01T15:28:48;41;41;
74880;PMS5003;63427;49.654;6.596;2023-03-01T15:31:14;34;33;
74880;PMS5003;63427;49.654;6.596;2023-03-01T15:33:37;40;38;
74880;PMS5003;63427;49.654;6.596;2023-03-01T15:36:04;38;38;
74880;PMS5003;63427;49.654;6.596;2023-03-01T15:38:30;37;35;
74880;PMS5003;63427;49.654;6.596;2023-03-01T15:40:54;37;37;
74880;PMS5003;63427;49.654;6.596;2023-03-01T15:45:47;39;38;
74880;PMS5003;63427;49.654;6.596;2023-03-01T15:48:14;35;35;
74880;PMS5003;63427;49.654;6.596;2023-03-01T15:50:36;38;37;
74880;PMS5003;63427;49.654;6.596;2023-03-01T15:53:03;32;31;
74880;PMS5003;63427;49.654;6.596;2023-03-01T15:55:28;34;34;
74880;PMS5003;63427;49.654;6.596;2023-03-01T15:57:57;31;31;
74880;PMS5003;63427;49.654;6.596;2023-03-01T16:00:18;32;31;
74880;PMS5003;63427;49.654;6.596;2023-03-01T16:02:43;30;30;
74880;PMS5003;63427;49.654;6.596;2023-03-01T16:05:12;31;31;
74880;PMS5003;63427;49.654;6.596;2023-03-01T16:07:34;33;31;
74880;PMS5003;63427;49.654;6.596;2023-03-01T16:10:00;40;39;
74880;PMS5003;63427;49.654;6.596;2023-03-01T16:12:25;34;34;
74880;PMS5003;63427;49.654;6.596;2023-03-01T16:14:51;32;32;
74880;PMS5003;63427;49.654;6.596;2023-03-01T16:17:16;33;31;
74880;PMS5003;63427;49.654;6.596;2023-03-01T16:19:41;31;31;